Time;durP1;ratioP1;P1;durP2;ratioP2;P2;SDS_P1;SDS_P2;PMS_P1;PMS_P2;Temp;Humidity;BMP_temperature;BMP_pressure;BME280_temperature;BME280_humidity;BME280_pressure;Samples;Min_cycle;Max_cycle;Signal;HPM_P1;HPM_P2
2023/10/01 00:01:02;;;;;;;12.75;3.58;;;;;;;13.95;100.00;100801.47;5054053;28;20057;-67
2023/10/01 00:03:28;;;;;;;19.65;4.03;;;;;;;13.96;100.00;100792.66;5058255;28;20048;-66
2023/10/01 00:05:55;;;;;;;16.13;4.25;;;;;;;13.98;100.00;100780.25;5055301;28;20056;-67
2023/10/01 00:08:22;;;;;;;12.85;3.72;;;;;;;13.91;100.00;100774.44;5060217;28;20044;-66
2023/10/01 00:10:49;;;;;;;21.05;4.90;;;;;;;13.85;100.00;100759.84;5054509;28;20603;-67
2023/10/01 00:13:15;;;;;;;21.77;4.13;;;;;;;13.82;100.00;100759.97;5062699;28;20128;-66
2023/10/01 00:15:43;;;;;;;19.52;4.88;;;;;;;13.71;100.00;100753.56;5060485;28;20478;-66
2023/10/01 00:18:10;;;;;;;11.73;3.20;;;;;;;13.89;100.00;100762.31;5065506;28;20048;-67
2023/10/01 00:20:37;;;;;;;23.75;4.57;;;;;;;13.82;100.00;100748.63;5051138;28;20049;-66
2023/10/01 00:23:03;;;;;;;13.93;4.50;;;;;;;13.84;100.00;100734.44;5055694;28;20410;-67
2023/10/01 00:25:32;;;;;;;11.57;3.40;;;;;;;13.83;100.00;100732.75;5062536;28;20106;-67
2023/10/01 00:28:03;;;;;;;14.65;4.30;;;;;;;13.71;100.00;100727.25;5063716;28;20063;-66
2023/10/01 00:30:33;;;;;;;16.50;4.55;;;;;;;13.74;100.00;100727.97;5063421;28;20053;-66
2023/10/01 00:33:06;;;;;;;22.50;4.97;;;;;;;13.77;100.00;100740.94;5069744;28;20059;-66
2023/10/01 00:35:37;;;;;;;22.67;4.60;;;;;;;13.72;100.00;100744.75;5062191;28;20588;-66
2023/10/01 00:38:05;;;;;;;14.38;3.88;;;;;;;13.95;100.00;100736.53;5060330;28;20044;-66
2023/10/01 00:40:32;;;;;;;14.55;4.10;;;;;;;13.85;100.00;100728.25;5069056;28;20056;-66
2023/10/01 00:42:58;;;;;;;18.90;4.38;;;;;;;13.84;100.00;100709.91;5068905;28;20063;-67
2023/10/01 00:45:25;;;;;;;18.42;4.38;;;;;;;13.83;100.00;100702.97;5060191;28;20052;-66
2023/10/01 00:47:53;;;;;;;13.98;3.33;;;;;;;13.83;100.00;100697.69;5068759;28;20505;-66
2023/10/01 00:50:21;;;;;;;21.00;4.93;;;;;;;13.87;100.00;100693.97;5056480;28;20481;-66
2023/10/01 00:52:51;;;;;;;16.50;4.07;;;;;;;14.02;100.00;100700.19;5064686;28;20059;-66
2023/10/01 00:55:20;;;;;;;29.08;3.80;;;;;;;13.81;100.00;100696.91;5069838;28;20371;-66
2023/10/01 00:57:49;;;;;;;14.45;3.45;;;;;;;13.99;100.00;100698.59;5070497;28;20449;-66
2023/10/01 01:00:19;;;;;;;14.75;3.55;;;;;;;13.91;100.00;100705.19;5066043;28;20143;-66
2023/10/01 01:03:00;;;;;;;18.25;4.97;;;;;;;13.97;100.00;100687.28;5066747;28;20538;-66
2023/10/01 01:05:57;;;;;;;14.23;3.30;;;;;;;14.12;100.00;100685.63;5060420;28;20057;-65
2023/10/01 01:08:30;;;;;;;15.43;4.32;;;;;;;13.97;100.00;100671.50;5055054;28;20061;-66
2023/10/01 01:11:03;;;;;;;11.70;2.60;;;;;;;13.96;100.00;100659.25;5065734;28;20048;-67
2023/10/01 01:13:30;;;;;;;12.15;2.75;;;;;;;14.02;100.00;100669.47;5075939;28;20051;-67
2023/10/01 01:16:00;;;;;;;15.73;3.85;;;;;;;13.76;100.00;100665.56;5075466;28;20056;-66
2023/10/01 01:18:27;;;;;;;11.73;2.97;;;;;;;13.84;100.00;100662.53;5062736;28;20470;-66
2023/10/01 01:20:58;;;;;;;16.90;3.03;;;;;;;13.67;100.00;100652.91;5048776;28;20053;-66
2023/10/01 01:23:26;;;;;;;13.57;3.13;;;;;;;13.70;100.00;100663.25;5068739;28;20127;-66
2023/10/01 01:25:54;;;;;;;15.48;2.63;;;;;;;13.85;100.00;100656.34;5069405;28;20131;-66
2023/10/01 01:28:27;;;;;;;12.98;2.33;;;;;;;13.96;100.00;100653.16;5068325;28;20067;-66
2023/10/01 01:30:55;;;;;;;;;;;;;;;13.96;100.00;100651.34;5059638;28;20164;-67
2023/10/01 01:33:26;;;;;;;10.32;2.92;;;;;;;13.96;100.00;100655.78;5066497;28;19939;-67
2023/10/01 01:35:54;;;;;;;10.52;2.70;;;;;;;13.95;100.00;100643.53;5069747;28;20137;-67
2023/10/01 01:38:22;;;;;;;14.52;3.00;;;;;;;13.84;100.00;100636.22;5068918;28;20075;-68
2023/10/01 01:40:52;;;;;;;12.90;2.35;;;;;;;13.82;100.00;100638.09;5065556;28;20469;-67
2023/10/01 01:43:23;;;;;;;12.35;2.50;;;;;;;13.82;100.00;100624.94;5058960;28;20084;-66
2023/10/01 01:46:00;;;;;;;13.95;2.28;;;;;;;13.89;100.00;100626.31;5068628;28;20052;-67
2023/10/01 01:50:58;;;;;;;12.25;2.92;;;;;;;13.70;100.00;100613.25;5069148;28;20052;-66
2023/10/01 01:53:34;;;;;;;11.15;2.38;;;;;;;13.73;100.00;100607.00;5069526;28;20048;-67
2023/10/01 01:56:10;;;;;;;11.30;2.47;;;;;;;13.84;100.00;100617.78;5055110;28;20371;-67
2023/10/01 01:58:39;;;;;;;17.33;3.08;;;;;;;13.91;100.00;100623.59;5058843;28;20431;-67
2023/10/01 02:03:44;;;;;;;;;;;;;;;13.96;100.00;100627.66;5059976;28;20048;-67
2023/10/01 02:06:13;;;;;;;8.25;1.98;;;;;;;13.78;100.00;100607.59;5058781;28;20278;-67
2023/10/01 02:08:49;;;;;;;14.32;2.38;;;;;;;13.79;100.00;100597.00;5067358;28;20437;-67
2023/10/01 02:11:18;;;;;;;9.93;1.88;;;;;;;13.83;100.00;100569.59;5058908;28;20055;-66
2023/10/01 02:13:47;;;;;;;10.82;2.33;;;;;;;13.90;100.00;100578.00;5068734;28;20048;-67
2023/10/01 02:19:21;;;;;;;7.90;1.95;;;;;;;13.98;100.00;100581.06;5058406;28;20053;-67
2023/10/01 02:21:52;;;;;;;11.43;2.65;;;;;;;13.93;100.00;100572.56;5054202;28;20079;-67
2023/10/01 02:24:22;;;;;;;9.32;2.20;;;;;;;13.85;100.00;100564.25;5056061;28;20483;-67
2023/10/01 02:26:58;;;;;;;9.85;2.20;;;;;;;13.85;100.00;100564.25;5067291;28;20052;-67
2023/10/01 02:29:31;;;;;;;12.15;2.53;;;;;;;13.88;100.00;100553.53;5060979;28;20080;-67
2023/10/01 02:32:04;;;;;;;9.20;2.17;;;;;;;13.91;100.00;100568.31;5062254;28;20080;-66
2023/10/01 02:34:32;;;;;;;7.15;2.00;;;;;;;13.90;100.00;100558.72;5057079;28;20045;-66
2023/10/01 02:37:03;;;;;;;8.10;1.95;;;;;;;13.89;100.00;100568.41;5066227;28;20544;-66
2023/10/01 02:39:30;;;;;;;9.90;1.90;;;;;;;13.84;100.00;100557.28;5068183;28;20048;-67
2023/10/01 02:44:47;;;;;;;9.20;1.70;;;;;;;13.94;100.00;100557.63;5055070;28;20161;-67
2023/10/01 02:47:23;;;;;;;5.93;1.85;;;;;;;13.90;100.00;100550.81;5055620;28;20079;-67
2023/10/01 02:49:59;;;;;;;5.93;1.30;;;;;;;14.05;100.00;100550.00;5068581;28;20127;-67
2023/10/01 02:52:36;;;;;;;7.35;1.85;;;;;;;13.91;100.00;100537.56;5067845;28;20456;-67
2023/10/01 02:55:06;;;;;;;6.90;1.73;;;;;;;13.99;100.00;100529.28;5049161;28;20131;-66
2023/10/01 02:57:33;;;;;;;3.42;1.20;;;;;;;13.97;100.00;100531.13;5062863;28;20390;-67
2023/10/01 03:02:53;;;;;;;4.47;1.13;;;;;;;13.96;100.00;100513.66;5065012;28;20044;-67
2023/10/01 03:05:42;;;;;;;5.07;1.27;;;;;;;13.96;100.00;100513.66;5068741;28;20094;-66
2023/10/01 03:08:25;;;;;;;6.88;1.38;;;;;;;13.93;100.00;100517.28;5060540;28;20060;-67
2023/10/01 03:10:53;;;;;;;7.07;2.20;;;;;;;13.79;100.00;100525.97;5068158;28;20044;-67
2023/10/01 03:13:30;;;;;;;7.22;1.60;;;;;;;13.85;100.00;100522.97;5065953;28;20052;-67
2023/10/01 03:18:46;;;;;;;8.43;2.03;;;;;;;13.90;100.00;100525.38;5071674;28;20478;-67
2023/10/01 03:22:13;;;;;;;9.38;2.45;;;;;;;13.87;100.00;100525.53;5070927;28;20056;-67
2023/10/01 03:24:03;;;;;;;10.68;2.78;;;;;;;13.75;100.00;100487.56;5065517;28;20068;-66
2023/10/01 03:26:33;;;;;;;11.18;2.60;;;;;;;13.90;100.00;100506.94;5057937;28;20056;-66
2023/10/01 03:29:17;;;;;;;9.77;2.30;;;;;;;13.87;100.00;100501.84;5071689;28;20490;-66
2023/10/01 03:31:46;;;;;;;20.95;3.78;;;;;;;13.79;100.00;100499.66;5059569;28;20041;-67
2023/10/01 03:34:28;;;;;;;15.98;3.30;;;;;;;13.84;100.00;100513.38;5066733;28;20048;-67
2023/10/01 03:37:00;;;;;;;11.15;3.47;;;;;;;13.88;100.00;100492.16;5060149;28;20041;-67
2023/10/01 03:39:27;;;;;;;18.13;3.75;;;;;;;13.88;100.00;100503.53;5070279;28;20067;-67
2023/10/01 03:42:09;;;;;;;12.57;3.20;;;;;;;13.83;100.00;100511.69;5071593;28;20060;-67
2023/10/01 03:47:23;;;;;;;12.48;3.15;;;;;;;13.97;100.00;100508.31;5069165;28;20052;-67
2023/10/01 03:49:59;;;;;;;15.18;4.18;;;;;;;13.84;100.00;100508.09;5068342;28;20076;-67
2023/10/01 03:52:29;;;;;;;13.95;3.53;;;;;;;13.71;100.00;100501.00;5056494;28;20479;-67
2023/10/01 03:57:30;;;;;;;11.27;3.38;;;;;;;13.99;100.00;100482.75;5066593;28;20045;-67
2023/10/01 04:00:08;;;;;;;11.38;2.92;;;;;;;13.89;100.00;100473.66;5071426;28;20474;-66
2023/10/01 04:02:46;;;;;;;17.58;2.92;;;;;;;13.88;100.00;100466.69;5056945;28;20053;-66
2023/10/01 04:05:30;;;;;;;13.90;3.40;;;;;;;13.93;100.00;100471.69;5061635;28;20139;-66
2023/10/01 04:08:19;;;;;;;9.00;2.50;;;;;;;14.00;100.00;100473.88;5065343;28;20045;-67
2023/10/01 04:10:51;;;;;;;10.05;2.60;;;;;;;13.94;100.00;100473.41;5065346;28;20051;-66
2023/10/01 04:13:20;;;;;;;10.05;2.83;;;;;;;13.95;100.00;100468.06;5051552;28;20220;-67
2023/10/01 04:15:55;;;;;;;9.10;2.13;;;;;;;14.05;100.00;100471.00;5063416;28;20053;-66
2023/10/01 04:18:24;;;;;;;7.10;2.00;;;;;;;14.05;100.00;100478.91;5061134;28;20055;-67
2023/10/01 04:23:40;;;;;;;9.63;2.60;;;;;;;13.93;100.00;100469.91;5069650;28;20119;-67
2023/10/01 04:26:13;;;;;;;8.80;2.50;;;;;;;13.93;100.00;100467.28;5064306;28;20052;-68
2023/10/01 04:28:44;;;;;;;11.10;2.72;;;;;;;14.03;100.00;100475.53;5065607;28;20052;-66
2023/10/01 04:31:16;;;;;;;9.60;2.08;;;;;;;13.97;100.00;100460.94;5070258;28;20079;-67
2023/10/01 04:33:45;;;;;;;6.50;2.10;;;;;;;14.09;100.00;100461.16;5070343;28;20056;-67
2023/10/01 04:36:12;;;;;;;9.27;2.83;;;;;;;13.91;100.00;100473.56;5071095;28;20054;-66
2023/10/01 04:38:41;;;;;;;8.88;2.72;;;;;;;13.92;100.00;100470.03;5066051;28;20060;-67
2023/10/01 04:41:18;;;;;;;8.13;2.70;;;;;;;13.82;100.00;100459.97;5070663;28;20433;-67
2023/10/01 04:43:55;;;;;;;8.75;2.28;;;;;;;13.85;100.00;100446.66;5069263;28;20044;-66
2023/10/01 04:46:29;;;;;;;7.63;2.25;;;;;;;13.82;100.00;100453.88;5070261;28;20383;-66
2023/10/01 04:48:57;;;;;;;6.82;2.25;;;;;;;13.66;100.00;100462.59;5070022;28;20048;-66
2023/10/01 04:51:44;;;;;;;8.57;2.63;;;;;;;13.76;100.00;100468.22;5070945;28;20478;-67
2023/10/01 04:54:21;;;;;;;7.97;2.50;;;;;;;13.80;100.00;100467.13;5070246;28;20399;-66
2023/10/01 04:56:49;;;;;;;11.13;3.15;;;;;;;13.73;100.00;100463.13;5071085;28;20478;-67
2023/10/01 04:59:16;;;;;;;9.63;2.92;;;;;;;13.66;100.00;100457.34;5068987;28;20098;-66
2023/10/01 05:01:43;;;;;;;6.18;2.10;;;;;;;13.65;100.00;100454.78;5057839;28;20045;-67
2023/10/01 05:04:11;;;;;;;9.13;2.55;;;;;;;13.52;100.00;100443.25;5064104;28;20636;-67
2023/10/01 05:06:43;;;;;;;8.10;2.75;;;;;;;13.56;100.00;100444.78;5059743;28;20517;-66
2023/10/01 05:09:14;;;;;;;7.32;2.25;;;;;;;13.54;100.00;100439.59;5069578;28;20117;-66
2023/10/01 05:11:42;;;;;;;6.47;1.70;;;;;;;13.53;100.00;100442.31;5069556;28;20453;-67
2023/10/01 05:14:12;;;;;;;6.75;2.38;;;;;;;13.43;100.00;100426.19;5067737;28;20056;-66
2023/10/01 05:16:39;;;;;;;6.43;1.83;;;;;;;13.44;100.00;100428.75;5063095;28;20048;-66
2023/10/01 05:19:15;;;;;;;6.53;2.00;;;;;;;13.27;100.00;100424.34;5069735;28;20056;-67
2023/10/01 05:21:46;;;;;;;6.57;2.50;;;;;;;13.32;100.00;100444.34;5061433;28;20080;-66
2023/10/01 05:24:39;;;;;;;8.25;2.17;;;;;;;13.33;100.00;100443.41;5079058;28;20110;-67
2023/10/01 05:27:09;;;;;;;5.30;1.73;;;;;;;13.34;100.00;100439.84;5076841;28;20553;-67
2023/10/01 05:29:39;;;;;;;8.02;2.72;;;;;;;13.15;100.00;100432.06;5069407;28;20080;-67
2023/10/01 05:32:06;;;;;;;5.65;1.90;;;;;;;13.20;100.00;100438.75;5058644;28;20111;-66
2023/10/01 05:34:33;;;;;;;4.70;1.40;;;;;;;13.22;100.00;100436.91;5078607;28;20060;-66
2023/10/01 05:37:12;;;;;;;6.60;1.95;;;;;;;13.14;100.00;100428.59;5068857;28;20059;-66
2023/10/01 05:39:58;;;;;;;3.70;1.40;;;;;;;13.18;100.00;100437.16;5062799;28;20052;-67
2023/10/01 05:42:34;;;;;;;5.38;1.45;;;;;;;13.21;100.00;100429.09;5055362;28;20063;-67
2023/10/01 05:45:04;;;;;;;6.75;1.90;;;;;;;13.10;100.00;100432.28;5069058;28;20456;-67
2023/10/01 05:47:51;;;;;;;5.57;1.60;;;;;;;13.08;100.00;100436.78;5055061;28;20098;-66
2023/10/01 05:50:19;;;;;;;9.43;2.13;;;;;;;13.04;100.00;100443.97;5069712;28;20410;-66
2023/10/01 05:52:47;;;;;;;8.05;1.80;;;;;;;13.04;100.00;100440.50;5069012;28;20413;-67
2023/10/01 05:55:15;;;;;;;4.97;1.60;;;;;;;13.01;100.00;100443.28;5069022;28;20079;-67
2023/10/01 05:57:43;;;;;;;5.80;2.17;;;;;;;12.93;100.00;100438.44;5063833;28;20630;-66
2023/10/01 06:00:18;;;;;;;3.55;1.50;;;;;;;12.94;100.00;100437.50;5069392;28;20045;-67
2023/10/01 06:03:00;;;;;;;4.78;1.75;;;;;;;12.93;100.00;100438.44;5069076;28;20048;-67
2023/10/01 06:05:42;;;;;;;5.97;1.65;;;;;;;13.05;100.00;100443.06;5055280;28;20053;-66
2023/10/01 06:08:17;;;;;;;6.03;1.80;;;;;;;13.04;100.00;100430.84;5068368;28;20052;-67
2023/10/01 06:11:13;;;;;;;5.65;1.50;;;;;;;13.17;100.00;100444.19;5065417;28;20045;-68
2023/10/01 06:13:56;;;;;;;5.10;1.50;;;;;;;13.20;100.00;100451.06;5063023;28;20426;-66
2023/10/01 06:16:24;;;;;;;6.30;1.70;;;;;;;13.07;100.00;100450.88;5054141;28;20084;-68
2023/10/01 06:18:56;;;;;;;6.07;1.92;;;;;;;13.15;100.00;100453.94;5065314;28;20474;-66
2023/10/01 06:21:27;;;;;;;6.93;2.45;;;;;;;13.18;100.00;100451.16;5068888;28;20053;-67
2023/10/01 06:23:58;;;;;;;6.82;2.00;;;;;;;13.13;100.00;100433.94;5068696;28;20052;-66
2023/10/01 06:26:36;;;;;;;6.95;1.90;;;;;;;13.07;100.00;100429.84;5065712;28;20072;-66
2023/10/01 06:29:05;;;;;;;5.07;1.65;;;;;;;13.15;100.00;100446.03;5067971;28;20462;-66
2023/10/01 06:31:48;;;;;;;7.13;2.17;;;;;;;13.04;100.00;100441.34;5065020;28;20135;-66
2023/10/01 06:34:21;;;;;;;5.32;1.70;;;;;;;13.10;100.00;100443.69;5070959;28;20053;-67
2023/10/01 06:36:57;;;;;;;4.60;1.70;;;;;;;13.08;100.00;100444.66;5051372;28;20128;-66
2023/10/01 06:39:25;;;;;;;8.23;2.10;;;;;;;13.07;100.00;100446.47;5056707;28;20106;-67
2023/10/01 06:41:52;;;;;;;9.50;2.25;;;;;;;13.13;100.00;100444.44;5054692;28;20048;-67
2023/10/01 06:44:19;;;;;;;7.57;2.25;;;;;;;13.07;100.00;100438.56;5067479;28;20139;-66
2023/10/01 06:46:49;;;;;;;7.10;2.42;;;;;;;13.20;100.00;100445.81;5054940;28;20041;-67
2023/10/01 06:49:18;;;;;;;5.93;1.75;;;;;;;13.25;100.00;100435.91;5067886;28;20428;-66
2023/10/01 06:51:45;;;;;;;5.60;1.90;;;;;;;13.25;100.00;100431.47;5064209;28;20498;-67
2023/10/01 06:54:13;;;;;;;5.28;1.63;;;;;;;13.40;100.00;100436.88;5062222;28;20114;-66
2023/10/01 06:56:47;;;;;;;4.13;1.63;;;;;;;13.38;100.00;100447.47;5060561;28;20048;-66
2023/10/01 06:59:17;;;;;;;9.02;1.58;;;;;;;13.44;100.00;100447.16;5062406;28;20052;-67
2023/10/01 07:01:49;;;;;;;7.10;1.52;;;;;;;13.56;100.00;100436.91;5053753;28;20110;-66
2023/10/01 07:04:19;;;;;;;3.55;1.30;;;;;;;13.55;100.00;100428.16;5061714;28;20056;-67
2023/10/01 07:06:50;;;;;;;5.57;1.45;;;;;;;13.56;100.00;100427.22;5052471;28;20045;-67
2023/10/01 07:09:27;;;;;;;4.63;1.40;;;;;;;13.67;100.00;100427.50;5065714;28;20049;-66
2023/10/01 07:11:58;;;;;;;4.55;1.35;;;;;;;13.63;100.00;100431.22;5056497;28;20052;-66
2023/10/01 07:14:43;;;;;;;3.25;1.50;;;;;;;14.04;100.00;100422.78;5053604;28;20471;-67
2023/10/01 07:17:15;;;;;;;4.07;1.30;;;;;;;14.52;100.00;100435.84;5075061;28;20052;-67
2023/10/01 07:19:45;;;;;;;6.10;1.70;;;;;;;14.56;100.00;100426.81;5053489;28;20234;-67
2023/10/01 07:22:14;;;;;;;6.45;1.90;;;;;;;14.78;100.00;100418.50;5064280;28;20059;-67
2023/10/01 07:24:41;;;;;;;5.65;1.50;;;;;;;15.23;100.00;100407.88;5054867;28;20053;-66
2023/10/01 07:27:11;;;;;;;6.07;1.38;;;;;;;15.68;100.00;100389.22;5064404;28;20477;-66
2023/10/01 07:29:42;;;;;;;2.25;1.10;;;;;;;15.83;100.00;100388.28;5052705;28;20041;-67
2023/10/01 07:32:12;;;;;;;5.03;1.30;;;;;;;16.08;100.00;100394.59;5053582;28;20045;-67
2023/10/01 07:34:45;;;;;;;2.13;0.85;;;;;;;16.31;100.00;100393.88;5059018;28;20055;-66
2023/10/01 07:37:23;;;;;;;3.15;1.20;;;;;;;16.06;100.00;100377.97;5058656;28;20091;-67
2023/10/01 07:39:55;;;;;;;4.95;1.30;;;;;;;16.47;100.00;100392.88;5068877;28;20053;-67
2023/10/01 07:42:23;;;;;;;3.95;1.00;;;;;;;16.28;100.00;100362.38;5067112;28;20079;-67
2023/10/01 07:44:50;;;;;;;3.28;0.98;;;;;;;16.22;100.00;100365.44;5069377;28;20063;-66
2023/10/01 07:47:29;;;;;;;2.55;1.00;;;;;;;16.58;100.00;100371.00;5053510;28;20048;-66
2023/10/01 07:49:57;;;;;;;3.00;1.00;;;;;;;16.93;100.00;100365.94;5058523;28;20053;-67
2023/10/01 07:52:24;;;;;;;5.50;1.13;;;;;;;17.08;100.00;100366.63;5051763;28;20140;-66
2023/10/01 07:54:51;;;;;;;3.15;1.20;;;;;;;17.35;100.00;100365.63;5064622;28;20564;-67
2023/10/01 07:57:27;;;;;;;2.50;0.80;;;;;;;17.42;100.00;100364.22;5053617;28;20055;-67
2023/10/01 07:59:55;;;;;;;3.28;0.85;;;;;;;17.42;100.00;100365.09;5059044;28;20127;-67
2023/10/01 08:02:24;;;;;;;1.35;0.80;;;;;;;17.88;100.00;100375.94;5058164;28;20051;-68
2023/10/01 08:04:58;;;;;;;3.45;1.20;;;;;;;18.01;100.00;100369.63;5066851;28;20048;-67
2023/10/01 08:07:30;;;;;;;2.53;1.00;;;;;;;18.16;100.00;100372.06;5070832;28;20071;-67
2023/10/01 08:09:59;;;;;;;2.38;0.90;;;;;;;18.25;100.00;100366.06;5061173;28;20051;-67
2023/10/01 08:12:29;;;;;;;4.72;1.38;;;;;;;17.74;100.00;100372.47;5062461;28;20182;-67
2023/10/01 08:17:47;;;;;;;4.47;1.13;;;;;;;18.14;100.00;100372.19;5056211;28;20076;-67
2023/10/01 08:20:31;;;;;;;4.15;1.23;;;;;;;18.37;100.00;100374.91;5052443;28;20486;-66
2023/10/01 08:23:12;;;;;;;3.83;1.10;;;;;;;18.68;100.00;100362.81;5054423;28;20050;-67
2023/10/01 08:25:51;;;;;;;2.72;1.00;;;;;;;19.04;100.00;100366.22;5053929;28;20052;-66
2023/10/01 08:30:49;;;;;;;6.50;1.50;;;;;;;19.04;100.00;100365.38;5065377;28;20059;-67
2023/10/01 08:33:19;;;;;;;5.50;1.38;;;;;;;19.08;100.00;100367.66;5053017;28;20128;-67
2023/10/01 08:36:12;;;;;;;5.03;1.40;;;;;;;18.70;100.00;100350.25;5067612;28;20083;-66
2023/10/01 08:38:47;;;;;;;3.85;1.25;;;;;;;18.97;100.00;100357.06;5061410;28;20425;-67
2023/10/01 08:41:35;;;;;;;4.20;1.17;;;;;;;18.97;100.00;100357.88;5057603;28;20112;-68
2023/10/01 08:44:09;;;;;;;3.53;1.20;;;;;;;19.04;100.00;100363.56;5051347;28;20060;-67
2023/10/01 08:46:40;;;;;;;4.85;1.30;;;;;;;18.58;100.00;100364.47;5063937;28;20041;-67
2023/10/01 08:49:23;;;;;;;4.88;1.35;;;;;;;18.39;100.00;100372.97;5068101;28;20044;-66
2023/10/01 08:52:18;;;;;;;4.07;1.40;;;;;;;18.16;100.00;100377.38;5049512;28;20037;-66
2023/10/01 08:54:43;;;;;;;5.80;1.45;;;;;;;17.98;100.00;100379.59;5060354;28;20048;-66
2023/10/01 08:57:36;;;;;;;5.72;1.30;;;;;;;17.73;100.00;100385.84;5052840;28;20056;-66
2023/10/01 09:00:17;;;;;;;3.55;1.17;;;;;;;17.46;100.00;100381.59;5059635;28;20131;-67
2023/10/01 09:02:55;;;;;;;4.55;1.38;;;;;;;17.48;100.00;100384.97;5064203;28;20044;-67
2023/10/01 09:05:23;;;;;;;6.05;1.60;;;;;;;17.39;100.00;100390.94;5064947;28;20348;-67
2023/10/01 09:10:55;;;;;;;4.93;1.60;;;;;;;17.68;100.00;100399.41;5065229;28;20044;-67
2023/10/01 09:13:22;;;;;;;6.57;2.15;;;;;;;17.51;100.00;100386.53;5065154;28;20127;-66
2023/10/01 09:15:55;;;;;;;8.25;2.10;;;;;;;17.59;100.00;100397.41;5049788;28;20053;-66
2023/10/01 09:18:23;;;;;;;7.47;2.22;;;;;;;17.61;100.00;100404.28;5061522;28;20135;-67
2023/10/01 09:21:09;;;;;;;6.85;1.95;;;;;;;17.68;100.00;100407.34;5063169;28;20051;-66
2023/10/01 09:23:58;;;;;;;6.10;1.75;;;;;;;17.72;100.00;100403.50;5052332;28;20052;-66
2023/10/01 09:26:53;;;;;;;7.38;2.25;;;;;;;17.64;100.00;100412.00;5057708;28;20041;-66
2023/10/01 09:29:21;;;;;;;7.00;2.13;;;;;;;17.73;100.00;100405.19;5049625;28;20057;-66
2023/10/01 09:31:56;;;;;;;5.07;1.83;;;;;;;17.85;100.00;100419.34;5047678;28;20110;-66
2023/10/01 09:34:31;;;;;;;7.00;2.20;;;;;;;17.98;100.00;100422.81;5056491;28;20139;-67
2023/10/01 09:40:32;;;;;;;7.00;2.35;;;;;;;18.09;100.00;100416.72;5061718;28;20148;-67
2023/10/01 09:42:56;;;;;;;7.57;2.80;;;;;;;18.06;100.00;100418.75;5057726;28;20045;-66
2023/10/01 09:45:29;;;;;;;9.23;2.50;;;;;;;18.01;100.00;100408.50;5051287;28;20139;-66
2023/10/01 09:48:07;;;;;;;5.30;2.03;;;;;;;18.16;100.00;100417.13;5060408;28;20059;-66
2023/10/01 09:50:39;;;;;;;7.80;3.03;;;;;;;18.08;100.00;100424.78;5050768;28;20056;-66
2023/10/01 09:53:14;;;;;;;7.63;2.28;;;;;;;17.91;100.00;100426.03;5057624;28;20053;-66
2023/10/01 09:55:49;;;;;;;7.20;2.30;;;;;;;18.05;100.00;100420.56;5061434;28;20056;-67
2023/10/01 09:58:26;;;;;;;5.60;2.17;;;;;;;18.13;100.00;100426.16;5066293;28;20064;-67
2023/10/01 10:00:55;;;;;;;9.50;2.72;;;;;;;18.38;100.00;100422.50;5053995;28;20567;-66
2023/10/01 10:03:23;;;;;;;8.80;2.42;;;;;;;18.58;100.00;100422.81;5061458;28;20127;-66
2023/10/01 10:05:51;;;;;;;6.57;2.03;;;;;;;18.39;100.00;100421.53;5064936;28;20132;-67
2023/10/01 10:08:26;;;;;;;9.13;2.65;;;;;;;18.44;100.00;100423.00;5058233;28;20588;-66
2023/10/01 10:10:55;;;;;;;7.30;2.40;;;;;;;18.46;100.00;100403.34;5060367;28;20055;-66
2023/10/01 10:13:50;;;;;;;5.82;2.38;;;;;;;18.25;100.00;100413.78;5068108;28;20091;-66
2023/10/01 10:16:32;;;;;;;5.47;2.03;;;;;;;18.38;100.00;100400.47;5053240;28;20072;-67
2023/10/01 10:19:13;;;;;;;6.93;2.28;;;;;;;18.44;100.00;100407.09;5059990;28;20054;-66
2023/10/01 10:24:29;;;;;;;7.57;2.70;;;;;;;18.43;100.00;100416.84;5067498;28;20106;-66
2023/10/01 10:26:57;;;;;;;8.23;3.13;;;;;;;18.56;100.00;100419.44;5061503;28;20045;-66
2023/10/01 10:29:24;;;;;;;7.78;3.40;;;;;;;18.56;100.00;100419.44;5063399;28;20470;-67
2023/10/01 10:32:09;;;;;;;9.25;3.83;;;;;;;18.77;100.00;100415.13;5061311;28;20068;-66
2023/10/01 10:34:47;;;;;;;9.55;3.92;;;;;;;18.75;100.00;100410.88;5064671;28;20135;-66
2023/10/01 10:37:44;;;;;;;8.93;3.42;;;;;;;19.01;100.00;100422.16;5048847;28;20044;-68
2023/10/01 10:42:39;;;;;;;10.68;4.43;;;;;;;19.12;100.00;100416.88;5041756;28;20052;-67
2023/10/01 10:45:24;;;;;;;7.93;3.42;;;;;;;19.02;100.00;100418.56;5049025;28;20059;-67
2023/10/01 10:48:03;;;;;;;7.75;2.85;;;;;;;19.37;100.00;100419.38;5051500;28;20052;-67
2023/10/01 10:50:53;;;;;;;7.95;2.90;;;;;;;19.35;100.00;100420.38;5045572;28;20124;-67
2023/10/01 10:53:37;;;;;;;8.30;3.28;;;;;;;19.51;100.00;100417.31;5039106;28;20060;-67
2023/10/01 10:56:07;;;;;;;9.20;3.10;;;;;;;19.18;100.00;100410.22;5045041;28;20053;-66
2023/10/01 10:58:43;;;;;;;7.50;2.88;;;;;;;19.51;100.00;100419.97;5051580;28;20135;-66
2023/10/01 11:01:20;;;;;;;8.32;3.05;;;;;;;19.41;100.00;100407.56;5043242;28;20055;-66
2023/10/01 11:03:49;;;;;;;8.13;3.13;;;;;;;19.37;100.00;100409.63;5047691;28;20045;-67
2023/10/01 11:06:40;;;;;;;8.13;3.10;;;;;;;19.38;100.00;100413.13;5032427;28;20128;-66
2023/10/01 11:09:25;;;;;;;10.50;3.60;;;;;;;19.30;100.00;100416.34;5047402;28;20064;-66
2023/10/01 11:11:53;;;;;;;7.22;2.92;;;;;;;19.45;100.00;100420.47;5057344;28;20127;-66
2023/10/01 11:14:20;;;;;;;8.18;3.15;;;;;;;19.37;100.00;100414.94;5042792;28;20364;-66
2023/10/01 11:16:49;;;;;;;6.63;2.78;;;;;;;19.70;100.00;100414.00;5049601;28;20051;-66
2023/10/01 11:19:21;;;;;;;8.98;3.33;;;;;;;19.80;100.00;100422.13;5035619;28;20060;-67
2023/10/01 11:21:55;;;;;;;6.50;2.88;;;;;;;20.11;100.00;100430.22;5034785;28;20045;-67
2023/10/01 11:24:25;;;;;;;8.07;3.13;;;;;;;20.45;100.00;100427.41;5047909;28;20049;-66
2023/10/01 11:27:18;;;;;;;7.38;2.60;;;;;;;20.72;100.00;100424.28;5040508;28;20048;-67
2023/10/01 11:30:12;;;;;;;9.30;3.08;;;;;;;20.74;100.00;100426.81;5045644;28;20693;-66
2023/10/01 11:36:09;;;;;;;6.45;2.42;;;;;;;20.65;100.00;100407.16;5008057;28;20061;-66
2023/10/01 11:38:45;;;;;;;6.90;2.63;;;;;;;20.33;100.00;100418.66;5004112;28;20046;-66
2023/10/01 11:41:13;;;;;;;6.70;2.25;;;;;;;20.13;100.00;100407.00;5041717;28;20045;-66
2023/10/01 11:44:00;;;;;;;7.80;2.40;;;;;;;20.43;100.00;100418.72;5046873;28;20495;-67
2023/10/01 11:46:34;;;;;;;7.43;2.38;;;;;;;20.32;100.00;100427.59;5042825;28;20049;-66
2023/10/01 11:49:09;;;;;;;6.50;2.33;;;;;;;20.14;100.00;100429.97;5048260;28;20419;-67
2023/10/01 11:51:48;;;;;;;5.82;2.03;;;;;;;20.36;100.00;100423.72;5049593;28;20068;-67
2023/10/01 11:54:16;;;;;;;9.23;2.53;;;;;;;20.23;100.00;100421.22;5050333;28;20392;-67
2023/10/01 11:56:44;;;;;;;6.13;2.10;;;;;;;20.16;100.00;100428.03;5050980;28;20139;-66
2023/10/01 11:59:20;;;;;;;8.98;2.40;;;;;;;20.17;100.00;100429.72;5050127;28;20483;-68
2023/10/01 12:01:53;;;;;;;7.28;2.45;;;;;;;20.28;100.00;100440.31;5047620;28;20494;-67
2023/10/01 12:04:43;;;;;;;6.35;2.38;;;;;;;20.41;100.00;100434.78;5032465;28;20060;-67
2023/10/01 12:07:18;;;;;;;6.88;2.47;;;;;;;20.29;100.00;100438.47;5042568;28;20057;-67
2023/10/01 12:09:54;;;;;;;7.10;2.40;;;;;;;20.43;100.00;100424.91;5047457;28;20376;-66
2023/10/01 12:12:27;;;;;;;6.72;2.20;;;;;;;20.36;100.00;100425.53;5049959;28;20411;-67
2023/10/01 12:14:55;;;;;;;6.13;2.15;;;;;;;20.36;100.00;100437.03;5037824;28;20041;-66
2023/10/01 12:17:29;;;;;;;7.60;2.25;;;;;;;20.64;100.00;100430.22;5041543;28;20041;-67
2023/10/01 12:20:00;;;;;;;8.15;1.90;;;;;;;20.97;100.00;100438.13;5052307;28;20403;-67
2023/10/01 12:22:29;;;;;;;7.68;2.50;;;;;;;20.73;100.00;100449.03;5050739;28;20094;-67
2023/10/01 12:24:59;;;;;;;8.38;2.47;;;;;;;20.63;100.00;100449.84;5045280;28;20131;-67
2023/10/01 12:27:38;;;;;;;7.68;2.20;;;;;;;20.71;100.00;100448.34;5044946;28;20048;-67
2023/10/01 12:30:27;;;;;;;5.85;2.00;;;;;;;21.00;100.00;100453.81;5050651;28;20057;-66